sensor_id;sensor_type;location;lat;lon;timestamp;temperature;humidity
5011;DHT22;2524;54.364;10.072;2022-08-21T00:00:23;17.90;99.90
5011;DHT22;2524;54.364;10.072;2022-08-21T00:03:03;17.80;99.90
5011;DHT22;2524;54.364;10.072;2022-08-21T00:05:31;17.80;99.90
5011;DHT22;2524;54.364;10.072;2022-08-21T00:07:57;17.90;99.90
5011;DHT22;2524;54.364;10.072;2022-08-21T00:10:23;17.70;99.90
5011;DHT22;2524;54.364;10.072;2022-08-21T00:12:49;17.70;99.90
5011;DHT22;2524;54.364;10.072;2022-08-21T00:15:19;17.80;99.90
5011;DHT22;2524;54.364;10.072;2022-08-21T00:17:44;17.70;99.90
5011;DHT22;2524;54.364;10.072;2022-08-21T00:20:12;17.60;99.90
5011;DHT22;2524;54.364;10.072;2022-08-21T00:22:38;17.60;99.90
5011;DHT22;2524;54.364;10.072;2022-08-21T00:25:06;17.70;99.90
5011;DHT22;2524;54.364;10.072;2022-08-21T00:27:32;17.60;99.90
5011;DHT22;2524;54.364;10.072;2022-08-21T00:29:58;17.60;99.90
5011;DHT22;2524;54.364;10.072;2022-08-21T00:32:25;17.50;99.90
5011;DHT22;2524;54.364;10.072;2022-08-21T00:34:51;17.50;99.90
5011;DHT22;2524;54.364;10.072;2022-08-21T00:37:17;17.40;99.90
5011;DHT22;2524;54.364;10.072;2022-08-21T00:39:43;17.40;99.90
5011;DHT22;2524;54.364;10.072;2022-08-21T00:42:09;17.40;99.90
5011;DHT22;2524;54.364;10.072;2022-08-21T00:44:35;17.40;99.90
5011;DHT22;2524;54.364;10.072;2022-08-21T00:47:01;17.50;99.90
5011;DHT22;2524;54.364;10.072;2022-08-21T00:49:27;17.50;99.90
5011;DHT22;2524;54.364;10.072;2022-08-21T00:51:59;17.40;99.90
5011;DHT22;2524;54.364;10.072;2022-08-21T00:54:27;17.30;99.90
5011;DHT22;2524;54.364;10.072;2022-08-21T00:56:58;17.30;99.90
5011;DHT22;2524;54.364;10.072;2022-08-21T00:59:25;17.30;99.90
5011;DHT22;2524;54.364;10.072;2022-08-21T01:01:52;17.30;99.90
5011;DHT22;2524;54.364;10.072;2022-08-21T01:04:18;17.40;99.90
5011;DHT22;2524;54.364;10.072;2022-08-21T01:06:43;17.20;99.90
5011;DHT22;2524;54.364;10.072;2022-08-21T01:09:10;17.30;99.90
5011;DHT22;2524;54.364;10.072;2022-08-21T01:11:36;17.20;99.90
5011;DHT22;2524;54.364;10.072;2022-08-21T01:14:02;17.10;99.90
5011;DHT22;2524;54.364;10.072;2022-08-21T01:16:28;17.10;99.90
5011;DHT22;2524;54.364;10.072;2022-08-21T01:18:54;17.20;99.90
5011;DHT22;2524;54.364;10.072;2022-08-21T01:21:24;17.00;99.90
5011;DHT22;2524;54.364;10.072;2022-08-21T01:23:52;17.10;99.90
5011;DHT22;2524;54.364;10.072;2022-08-21T01:26:24;17.10;99.90
5011;DHT22;2524;54.364;10.072;2022-08-21T01:28:58;16.90;99.90
5011;DHT22;2524;54.364;10.072;2022-08-21T01:31:27;16.90;99.90
5011;DHT22;2524;54.364;10.072;2022-08-21T01:33:54;17.00;99.90
5011;DHT22;2524;54.364;10.072;2022-08-21T01:36:21;16.90;99.90
5011;DHT22;2524;54.364;10.072;2022-08-21T01:38:47;16.80;99.90
5011;DHT22;2524;54.364;10.072;2022-08-21T01:41:13;16.70;99.90
5011;DHT22;2524;54.364;10.072;2022-08-21T01:43:40;16.80;99.90
5011;DHT22;2524;54.364;10.072;2022-08-21T01:46:06;16.70;99.90
5011;DHT22;2524;54.364;10.072;2022-08-21T01:48:32;16.70;99.90
5011;DHT22;2524;54.364;10.072;2022-08-21T01:50:58;16.70;99.90
5011;DHT22;2524;54.364;10.072;2022-08-21T01:53:24;16.60;99.90
5011;DHT22;2524;54.364;10.072;2022-08-21T01:55:49;16.60;99.90
5011;DHT22;2524;54.364;10.072;2022-08-21T01:58:15;16.50;99.90
5011;DHT22;2524;54.364;10.072;2022-08-21T02:00:41;16.60;99.90
5011;DHT22;2524;54.364;10.072;2022-08-21T02:03:07;16.60;99.90
5011;DHT22;2524;54.364;10.072;2022-08-21T02:05:32;16.60;99.90
5011;DHT22;2524;54.364;10.072;2022-08-21T02:07:58;16.60;99.90
5011;DHT22;2524;54.364;10.072;2022-08-21T02:10:30;16.50;99.90
5011;DHT22;2524;54.364;10.072;2022-08-21T02:13:05;16.50;99.90
5011;DHT22;2524;54.364;10.072;2022-08-21T02:15:32;16.40;99.90
5011;DHT22;2524;54.364;10.072;2022-08-21T02:18:00;16.50;99.90
5011;DHT22;2524;54.364;10.072;2022-08-21T02:20:36;16.40;99.90
5011;DHT22;2524;54.364;10.072;2022-08-21T02:23:04;16.50;99.90
5011;DHT22;2524;54.364;10.072;2022-08-21T02:25:30;16.50;99.90
5011;DHT22;2524;54.364;10.072;2022-08-21T02:27:56;16.50;99.90
5011;DHT22;2524;54.364;10.072;2022-08-21T02:30:35;16.50;99.90
5011;DHT22;2524;54.364;10.072;2022-08-21T02:33:03;16.50;99.90
5011;DHT22;2524;54.364;10.072;2022-08-21T02:35:29;16.60;99.90
5011;DHT22;2524;54.364;10.072;2022-08-21T02:40:27;16.50;99.90
5011;DHT22;2524;54.364;10.072;2022-08-21T02:42:54;16.40;99.90
5011;DHT22;2524;54.364;10.072;2022-08-21T02:45:20;16.40;99.90
5011;DHT22;2524;54.364;10.072;2022-08-21T02:47:54;16.30;99.90
5011;DHT22;2524;54.364;10.072;2022-08-21T02:50:30;16.30;99.90
5011;DHT22;2524;54.364;10.072;2022-08-21T02:52:56;16.40;99.90
5011;DHT22;2524;54.364;10.072;2022-08-21T02:55:25;16.30;99.90
5011;DHT22;2524;54.364;10.072;2022-08-21T02:57:52;16.20;99.90
5011;DHT22;2524;54.364;10.072;2022-08-21T03:00:20;16.10;99.90
5011;DHT22;2524;54.364;10.072;2022-08-21T03:02:46;16.00;99.90
5011;DHT22;2524;54.364;10.072;2022-08-21T03:05:12;16.00;99.90
5011;DHT22;2524;54.364;10.072;2022-08-21T03:07:39;15.80;99.90
5011;DHT22;2524;54.364;10.072;2022-08-21T03:10:05;15.80;99.90
5011;DHT22;2524;54.364;10.072;2022-08-21T03:12:31;15.70;99.90
5011;DHT22;2524;54.364;10.072;2022-08-21T03:14:57;15.60;99.90
5011;DHT22;2524;54.364;10.072;2022-08-21T03:17:23;15.60;99.90
5011;DHT22;2524;54.364;10.072;2022-08-21T03:19:49;15.60;99.90
5011;DHT22;2524;54.364;10.072;2022-08-21T03:22:15;15.50;99.90
5011;DHT22;2524;54.364;10.072;2022-08-21T03:24:41;15.50;99.90
5011;DHT22;2524;54.364;10.072;2022-08-21T03:27:06;15.60;99.90
5011;DHT22;2524;54.364;10.072;2022-08-21T03:29:32;15.50;99.90
5011;DHT22;2524;54.364;10.072;2022-08-21T03:31:57;15.60;99.90
5011;DHT22;2524;54.364;10.072;2022-08-21T03:34:23;15.50;99.90
5011;DHT22;2524;54.364;10.072;2022-08-21T03:36:49;15.60;99.90
5011;DHT22;2524;54.364;10.072;2022-08-21T03:39:15;15.50;99.90
5011;DHT22;2524;54.364;10.072;2022-08-21T03:41:41;15.50;99.90
5011;DHT22;2524;54.364;10.072;2022-08-21T03:44:07;15.50;99.90
5011;DHT22;2524;54.364;10.072;2022-08-21T03:46:33;15.60;99.90
5011;DHT22;2524;54.364;10.072;2022-08-21T03:48:59;15.60;99.90
5011;DHT22;2524;54.364;10.072;2022-08-21T03:51:25;15.60;99.90
5011;DHT22;2524;54.364;10.072;2022-08-21T03:53:51;15.70;99.90
5011;DHT22;2524;54.364;10.072;2022-08-21T03:56:17;15.70;99.90
5011;DHT22;2524;54.364;10.072;2022-08-21T03:58:43;15.70;99.90
5011;DHT22;2524;54.364;10.072;2022-08-21T04:01:10;15.60;99.90
5011;DHT22;2524;54.364;10.072;2022-08-21T04:03:36;15.70;99.90
5011;DHT22;2524;54.364;10.072;2022-08-21T04:06:03;15.60;99.90
5011;DHT22;2524;54.364;10.072;2022-08-21T04:08:29;15.60;99.90
5011;DHT22;2524;54.364;10.072;2022-08-21T04:10:57;15.70;99.90
5011;DHT22;2524;54.364;10.072;2022-08-21T04:13:24;15.80;99.90
5011;DHT22;2524;54.364;10.072;2022-08-21T04:15:51;15.70;99.90
5011;DHT22;2524;54.364;10.072;2022-08-21T04:18:17;15.80;99.90
5011;DHT22;2524;54.364;10.072;2022-08-21T04:20:45;15.60;99.90
5011;DHT22;2524;54.364;10.072;2022-08-21T04:23:11;15.60;99.90
5011;DHT22;2524;54.364;10.072;2022-08-21T04:25:37;15.60;99.90
5011;DHT22;2524;54.364;10.072;2022-08-21T04:28:03;15.70;99.90
5011;DHT22;2524;54.364;10.072;2022-08-21T04:30:29;15.70;99.90
5011;DHT22;2524;54.364;10.072;2022-08-21T04:32:56;15.60;99.90
5011;DHT22;2524;54.364;10.072;2022-08-21T04:35:24;15.70;99.90
5011;DHT22;2524;54.364;10.072;2022-08-21T04:37:50;15.60;99.90
5011;DHT22;2524;54.364;10.072;2022-08-21T04:40:17;15.70;99.90
5011;DHT22;2524;54.364;10.072;2022-08-21T04:42:50;15.60;99.90
5011;DHT22;2524;54.364;10.072;2022-08-21T04:45:21;15.60;99.90
5011;DHT22;2524;54.364;10.072;2022-08-21T04:47:52;15.60;99.90
5011;DHT22;2524;54.364;10.072;2022-08-21T04:50:19;15.60;99.90
5011;DHT22;2524;54.364;10.072;2022-08-21T04:52:46;15.60;99.90
5011;DHT22;2524;54.364;10.072;2022-08-21T04:55:12;15.50;99.90
5011;DHT22;2524;54.364;10.072;2022-08-21T04:57:39;15.60;99.90
5011;DHT22;2524;54.364;10.072;2022-08-21T05:00:06;15.50;99.90
5011;DHT22;2524;54.364;10.072;2022-08-21T05:02:32;15.40;99.90
5011;DHT22;2524;54.364;10.072;2022-08-21T05:04:58;15.40;99.90
5011;DHT22;2524;54.364;10.072;2022-08-21T05:07:27;15.40;99.90
5011;DHT22;2524;54.364;10.072;2022-08-21T05:09:54;15.60;99.90
5011;DHT22;2524;54.364;10.072;2022-08-21T05:12:21;15.60;99.90
5011;DHT22;2524;54.364;10.072;2022-08-21T05:14:47;15.50;99.90
5011;DHT22;2524;54.364;10.072;2022-08-21T05:17:13;15.50;99.90
5011;DHT22;2524;54.364;10.072;2022-08-21T05:19:39;15.50;99.90
5011;DHT22;2524;54.364;10.072;2022-08-21T05:22:05;15.50;99.90
5011;DHT22;2524;54.364;10.072;2022-08-21T05:24:31;15.60;99.90
5011;DHT22;2524;54.364;10.072;2022-08-21T05:26:57;15.60;99.90
5011;DHT22;2524;54.364;10.072;2022-08-21T05:29:23;15.60;99.90
5011;DHT22;2524;54.364;10.072;2022-08-21T05:31:48;15.70;99.90
5011;DHT22;2524;54.364;10.072;2022-08-21T05:34:18;15.70;99.90
5011;DHT22;2524;54.364;10.072;2022-08-21T05:36:44;15.80;99.90
5011;DHT22;2524;54.364;10.072;2022-08-21T05:39:10;15.80;99.90
5011;DHT22;2524;54.364;10.072;2022-08-21T05:41:35;15.80;99.90
5011;DHT22;2524;54.364;10.072;2022-08-21T05:44:01;15.90;99.90
5011;DHT22;2524;54.364;10.072;2022-08-21T05:46:27;15.90;99.90
5011;DHT22;2524;54.364;10.072;2022-08-21T05:48:52;15.90;99.90
5011;DHT22;2524;54.364;10.072;2022-08-21T05:51:18;16.00;99.90
5011;DHT22;2524;54.364;10.072;2022-08-21T05:53:44;16.00;99.90
5011;DHT22;2524;54.364;10.072;2022-08-21T05:56:12;16.00;99.90
5011;DHT22;2524;54.364;10.072;2022-08-21T05:58:38;16.10;99.90
5011;DHT22;2524;54.364;10.072;2022-08-21T06:01:05;16.00;99.90
5011;DHT22;2524;54.364;10.072;2022-08-21T06:03:34;16.10;99.90
5011;DHT22;2524;54.364;10.072;2022-08-21T06:06:01;16.20;99.90
5011;DHT22;2524;54.364;10.072;2022-08-21T06:08:27;16.10;99.90
5011;DHT22;2524;54.364;10.072;2022-08-21T06:10:55;16.10;99.90
5011;DHT22;2524;54.364;10.072;2022-08-21T06:13:22;16.10;99.90
5011;DHT22;2524;54.364;10.072;2022-08-21T06:15:49;16.10;99.90
5011;DHT22;2524;54.364;10.072;2022-08-21T06:18:15;16.40;99.90
5011;DHT22;2524;54.364;10.072;2022-08-21T06:20:41;16.30;99.90
5011;DHT22;2524;54.364;10.072;2022-08-21T06:23:07;16.30;99.90
5011;DHT22;2524;54.364;10.072;2022-08-21T06:25:33;16.40;99.90
5011;DHT22;2524;54.364;10.072;2022-08-21T06:28:07;16.40;99.90
5011;DHT22;2524;54.364;10.072;2022-08-21T06:30:34;16.50;99.90
5011;DHT22;2524;54.364;10.072;2022-08-21T06:33:00;16.60;99.90
5011;DHT22;2524;54.364;10.072;2022-08-21T06:35:26;16.60;99.90
5011;DHT22;2524;54.364;10.072;2022-08-21T06:37:51;16.70;99.90
5011;DHT22;2524;54.364;10.072;2022-08-21T06:40:17;16.80;99.90
5011;DHT22;2524;54.364;10.072;2022-08-21T06:42:43;16.90;99.90
5011;DHT22;2524;54.364;10.072;2022-08-21T06:45:09;16.90;99.90
5011;DHT22;2524;54.364;10.072;2022-08-21T06:47:35;17.00;99.90
5011;DHT22;2524;54.364;10.072;2022-08-21T06:50:01;17.10;99.90
5011;DHT22;2524;54.364;10.072;2022-08-21T06:52:26;17.10;99.90
5011;DHT22;2524;54.364;10.072;2022-08-21T06:54:52;17.20;99.90
5011;DHT22;2524;54.364;10.072;2022-08-21T06:57:17;17.30;99.90
5011;DHT22;2524;54.364;10.072;2022-08-21T06:59:43;17.30;99.90
5011;DHT22;2524;54.364;10.072;2022-08-21T07:02:08;17.40;99.90
5011;DHT22;2524;54.364;10.072;2022-08-21T07:04:34;17.40;99.90
5011;DHT22;2524;54.364;10.072;2022-08-21T07:07:00;17.50;99.90
5011;DHT22;2524;54.364;10.072;2022-08-21T07:09:25;17.50;99.90
5011;DHT22;2524;54.364;10.072;2022-08-21T07:11:53;17.60;99.90
5011;DHT22;2524;54.364;10.072;2022-08-21T07:14:19;17.70;99.90
5011;DHT22;2524;54.364;10.072;2022-08-21T07:16:44;17.70;99.90
5011;DHT22;2524;54.364;10.072;2022-08-21T07:19:10;17.80;99.90
5011;DHT22;2524;54.364;10.072;2022-08-21T07:21:36;17.80;99.90
5011;DHT22;2524;54.364;10.072;2022-08-21T07:24:02;17.90;99.90
5011;DHT22;2524;54.364;10.072;2022-08-21T07:26:27;18.00;99.90
5011;DHT22;2524;54.364;10.072;2022-08-21T07:28:53;18.10;99.90
5011;DHT22;2524;54.364;10.072;2022-08-21T07:31:21;18.10;99.90
5011;DHT22;2524;54.364;10.072;2022-08-21T07:33:47;18.20;99.90
5011;DHT22;2524;54.364;10.072;2022-08-21T07:36:13;18.30;99.90
5011;DHT22;2524;54.364;10.072;2022-08-21T07:38:39;18.30;99.90
5011;DHT22;2524;54.364;10.072;2022-08-21T07:41:18;18.50;99.90
5011;DHT22;2524;54.364;10.072;2022-08-21T07:43:45;18.50;99.90
5011;DHT22;2524;54.364;10.072;2022-08-21T07:46:11;18.70;99.90
5011;DHT22;2524;54.364;10.072;2022-08-21T07:48:36;18.60;99.90
5011;DHT22;2524;54.364;10.072;2022-08-21T07:51:06;18.70;99.90
5011;DHT22;2524;54.364;10.072;2022-08-21T07:53:34;18.80;99.90
5011;DHT22;2524;54.364;10.072;2022-08-21T07:56:00;18.90;99.90
5011;DHT22;2524;54.364;10.072;2022-08-21T07:58:26;19.00;99.90
5011;DHT22;2524;54.364;10.072;2022-08-21T08:00:51;19.10;99.90
5011;DHT22;2524;54.364;10.072;2022-08-21T08:03:17;19.20;99.90
5011;DHT22;2524;54.364;10.072;2022-08-21T08:05:42;19.20;99.90
5011;DHT22;2524;54.364;10.072;2022-08-21T08:08:08;19.40;99.90
5011;DHT22;2524;54.364;10.072;2022-08-21T08:10:35;19.40;99.90
5011;DHT22;2524;54.364;10.072;2022-08-21T08:13:01;19.40;99.90
5011;DHT22;2524;54.364;10.072;2022-08-21T08:15:27;19.50;99.90
5011;DHT22;2524;54.364;10.072;2022-08-21T08:17:54;19.60;99.90
5011;DHT22;2524;54.364;10.072;2022-08-21T08:20:20;19.70;99.90
5011;DHT22;2524;54.364;10.072;2022-08-21T08:22:47;19.80;99.90
5011;DHT22;2524;54.364;10.072;2022-08-21T08:25:14;19.90;99.90
5011;DHT22;2524;54.364;10.072;2022-08-21T08:27:40;19.90;99.90
5011;DHT22;2524;54.364;10.072;2022-08-21T08:30:08;20.00;99.90
5011;DHT22;2524;54.364;10.072;2022-08-21T08:32:34;20.10;99.90
5011;DHT22;2524;54.364;10.072;2022-08-21T08:35:00;20.20;99.90
5011;DHT22;2524;54.364;10.072;2022-08-21T08:37:25;20.30;99.90
5011;DHT22;2524;54.364;10.072;2022-08-21T08:39:51;20.40;99.90
5011;DHT22;2524;54.364;10.072;2022-08-21T08:42:28;20.50;99.90
5011;DHT22;2524;54.364;10.072;2022-08-21T08:45:03;20.50;99.90
5011;DHT22;2524;54.364;10.072;2022-08-21T08:47:32;20.60;99.90
5011;DHT22;2524;54.364;10.072;2022-08-21T08:50:12;20.70;99.90
5011;DHT22;2524;54.364;10.072;2022-08-21T08:52:47;20.80;99.90
5011;DHT22;2524;54.364;10.072;2022-08-21T08:55:36;20.90;99.90
5011;DHT22;2524;54.364;10.072;2022-08-21T08:58:02;20.90;99.90
5011;DHT22;2524;54.364;10.072;2022-08-21T09:00:28;20.90;99.90
5011;DHT22;2524;54.364;10.072;2022-08-21T09:02:56;21.00;99.90
5011;DHT22;2524;54.364;10.072;2022-08-21T09:05:28;21.10;99.90
5011;DHT22;2524;54.364;10.072;2022-08-21T09:08:39;21.20;99.90
5011;DHT22;2524;54.364;10.072;2022-08-21T09:11:08;21.20;99.90
5011;DHT22;2524;54.364;10.072;2022-08-21T09:16:55;21.40;99.90
5011;DHT22;2524;54.364;10.072;2022-08-21T09:19:41;21.50;99.90
5011;DHT22;2524;54.364;10.072;2022-08-21T09:22:50;21.60;99.90
5011;DHT22;2524;54.364;10.072;2022-08-21T09:25:25;21.60;99.90
5011;DHT22;2524;54.364;10.072;2022-08-21T09:27:51;21.70;99.90
5011;DHT22;2524;54.364;10.072;2022-08-21T09:30:19;21.80;99.90
5011;DHT22;2524;54.364;10.072;2022-08-21T09:32:48;21.90;99.90
5011;DHT22;2524;54.364;10.072;2022-08-21T09:35:17;22.00;99.90
5011;DHT22;2524;54.364;10.072;2022-08-21T09:37:59;22.10;99.90
5011;DHT22;2524;54.364;10.072;2022-08-21T09:45:38;22.30;99.90
5011;DHT22;2524;54.364;10.072;2022-08-21T09:48:24;22.30;99.90
5011;DHT22;2524;54.364;10.072;2022-08-21T09:50:51;22.40;99.90
